Orbital elements of COSMOS 970 DEB
| Launched | 20 December 1977 |
| Flight ended | – |
| Launch site | Tyuratam Missile and Space Center, Kazakhstan (Also known as Baikonur Cosmodrome) |
| Owner | Commonwealth of Independent States (former USSR) |
| NORAD ID | 10889 |
| Date fetched |
Epoch osculation |
Inc. [°] |
Ecc. | RA asc node [hr] |
Arg Peri. [°] |
Mean anom [°] |
Mean motion [rev/day] |
Abs. mag |
| Date fetched |
Epoch osculation |
Inc. [°] |
Ecc. | RA asc node [hr] |
Arg Peri. [°] |
Mean anom [°] |
Mean motion [rev/day] |
Abs. mag |
| 2026 May 03 17:57 | 2026 Apr 30 12:31:25 | 65.8259 | 0.01263 | 14.3178 | 158.8634 | 201.7716 | 13.76666 | – |
| 2026 May 02 17:57 | 2026 Apr 30 12:31:25 | 65.8259 | 0.01263 | 14.3178 | 158.8634 | 201.7716 | 13.76666 | – |
| 2026 May 01 17:56 | 2026 Apr 30 12:31:25 | 65.8259 | 0.01263 | 14.3178 | 158.8634 | 201.7716 | 13.76666 | – |
| 2026 Apr 30 17:56 | 2026 Apr 30 12:31:25 | 65.8259 | 0.01263 | 14.3178 | 158.8634 | 201.7716 | 13.76666 | – |
| 2026 Apr 29 17:57 | 2026 Apr 23 14:53:20 | 65.8258 | 0.01269 | 15.4582 | 162.2293 | 201.7716 | 13.76666 | – |
| 2026 Apr 28 17:56 | 2026 Apr 23 14:53:20 | 65.8258 | 0.01269 | 15.4582 | 162.2293 | 201.7716 | 13.76666 | – |
| 2026 Apr 27 17:58 | 2026 Apr 23 14:53:20 | 65.8258 | 0.01269 | 15.4582 | 162.2293 | 201.7716 | 13.76666 | – |
| 2026 Apr 26 17:58 | 2026 Apr 23 14:53:20 | 65.8258 | 0.01269 | 15.4582 | 162.2293 | 201.7716 | 13.76666 | – |
| 2026 Apr 25 17:58 | 2026 Apr 23 14:53:20 | 65.8258 | 0.01269 | 15.4582 | 162.2293 | 201.7716 | 13.76666 | – |
| 2026 Apr 24 17:59 | 2026 Apr 23 14:53:20 | 65.8258 | 0.01269 | 15.4582 | 162.2293 | 201.7716 | 13.76666 | – |
| 2026 Apr 23 17:57 | 2026 Apr 19 08:01:14 | 65.8252 | 0.01272 | 16.1666 | 164.3025 | 201.7716 | 13.76666 | – |
| 2026 Apr 22 17:57 | 2026 Apr 19 08:01:14 | 65.8252 | 0.01272 | 16.1666 | 164.3025 | 201.7716 | 13.76666 | – |
| 2026 Apr 21 17:57 | 2026 Apr 19 08:01:14 | 65.8252 | 0.01272 | 16.1666 | 164.3025 | 201.7716 | 13.76666 | – |
| 2026 Apr 20 17:57 | 2026 Apr 19 08:01:14 | 65.8252 | 0.01272 | 16.1666 | 164.3025 | 201.7716 | 13.76666 | – |
| 2026 Apr 19 17:58 | 2026 Apr 19 08:01:14 | 65.8252 | 0.01272 | 16.1666 | 164.3025 | 201.7716 | 13.76666 | – |
| 2026 Apr 18 17:56 | 2026 Apr 12 17:21:31 | 65.8249 | 0.01277 | 17.2591 | 167.5275 | 201.7716 | 13.76666 | – |
| 2026 Apr 16 17:57 | 2026 Apr 12 17:21:31 | 65.8249 | 0.01277 | 17.2591 | 167.5275 | 201.7716 | 13.76666 | – |
| 2026 Apr 14 17:57 | 2026 Apr 12 17:21:31 | 65.8249 | 0.01277 | 17.2591 | 167.5275 | 201.7716 | 13.76666 | – |
| 2026 Apr 13 17:57 | 2026 Apr 12 17:21:31 | 65.8249 | 0.01277 | 17.2591 | 167.5275 | 201.7716 | 13.76666 | – |
| 2026 Apr 12 17:57 | 2026 Apr 08 05:15:33 | 65.8246 | 0.01280 | 18.0035 | 169.7294 | 201.7716 | 13.76666 | – |
| 2026 Apr 11 17:57 | 2026 Apr 08 05:15:33 | 65.8246 | 0.01280 | 18.0035 | 169.7294 | 201.7716 | 13.76666 | – |
| 2026 Apr 10 17:58 | 2026 Apr 08 05:15:33 | 65.8246 | 0.01280 | 18.0035 | 169.7294 | 201.7716 | 13.76666 | – |
| 2026 Apr 09 18:01 | 2026 Apr 08 05:15:33 | 65.8246 | 0.01280 | 18.0035 | 169.7294 | 201.7716 | 13.76666 | – |
| 2026 Apr 08 17:57 | 2026 Apr 08 05:15:33 | 65.8246 | 0.01280 | 18.0035 | 169.7294 | 201.7716 | 13.76666 | – |
| 2026 Apr 07 17:57 | 2026 Apr 01 21:34:13 | 65.8248 | 0.01284 | 19.0481 | 172.8475 | 201.7716 | 13.76666 | – |
| 2026 Apr 06 17:57 | 2026 Apr 01 21:34:13 | 65.8248 | 0.01284 | 19.0481 | 172.8475 | 201.7716 | 13.76666 | – |